sensor_id;sensor_type;location;lat;lon;timestamp;temperature;humidity
5226;DHT22;2632;51.666;7.146;2023-07-20T00:02:12;17.70;99.90
5226;DHT22;2632;51.666;7.146;2023-07-20T00:04:39;17.70;99.90
5226;DHT22;2632;51.666;7.146;2023-07-20T00:07:06;17.80;99.90
5226;DHT22;2632;51.666;7.146;2023-07-20T00:09:33;17.70;99.90
5226;DHT22;2632;51.666;7.146;2023-07-20T00:11:59;17.80;99.90
5226;DHT22;2632;51.666;7.146;2023-07-20T00:14:26;17.70;99.90
5226;DHT22;2632;51.666;7.146;2023-07-20T00:16:55;17.80;99.90
5226;DHT22;2632;51.666;7.146;2023-07-20T00:19:24;17.80;99.90
5226;DHT22;2632;51.666;7.146;2023-07-20T00:21:51;17.80;99.90
5226;DHT22;2632;51.666;7.146;2023-07-20T00:24:18;17.80;99.90
5226;DHT22;2632;51.666;7.146;2023-07-20T00:26:45;17.90;99.90
5226;DHT22;2632;51.666;7.146;2023-07-20T00:29:12;17.90;99.90
5226;DHT22;2632;51.666;7.146;2023-07-20T00:31:38;17.80;99.90
5226;DHT22;2632;51.666;7.146;2023-07-20T00:34:06;17.80;99.90
5226;DHT22;2632;51.666;7.146;2023-07-20T00:36:33;17.80;99.90
5226;DHT22;2632;51.666;7.146;2023-07-20T00:38:59;17.70;99.90
5226;DHT22;2632;51.666;7.146;2023-07-20T00:41:26;17.70;99.90
5226;DHT22;2632;51.666;7.146;2023-07-20T00:43:56;17.80;99.90
5226;DHT22;2632;51.666;7.146;2023-07-20T00:46:23;17.80;99.90
5226;DHT22;2632;51.666;7.146;2023-07-20T00:48:53;17.80;99.90
5226;DHT22;2632;51.666;7.146;2023-07-20T00:51:21;17.80;99.90
5226;DHT22;2632;51.666;7.146;2023-07-20T00:53:48;17.80;99.90
5226;DHT22;2632;51.666;7.146;2023-07-20T00:56:15;17.80;99.90
5226;DHT22;2632;51.666;7.146;2023-07-20T00:58:42;17.80;99.90
5226;DHT22;2632;51.666;7.146;2023-07-20T01:01:09;17.80;99.90
5226;DHT22;2632;51.666;7.146;2023-07-20T01:03:36;17.80;99.90
5226;DHT22;2632;51.666;7.146;2023-07-20T01:06:26;17.70;99.90
5226;DHT22;2632;51.666;7.146;2023-07-20T01:09:17;17.70;99.90
5226;DHT22;2632;51.666;7.146;2023-07-20T01:12:07;17.70;99.90
5226;DHT22;2632;51.666;7.146;2023-07-20T01:14:35;17.70;99.90
5226;DHT22;2632;51.666;7.146;2023-07-20T01:17:02;17.80;99.90
5226;DHT22;2632;51.666;7.146;2023-07-20T01:19:29;17.80;99.90
5226;DHT22;2632;51.666;7.146;2023-07-20T01:24:49;17.90;99.90
5226;DHT22;2632;51.666;7.146;2023-07-20T01:33:21;17.80;99.90
5226;DHT22;2632;51.666;7.146;2023-07-20T01:35:55;17.70;99.90
5226;DHT22;2632;51.666;7.146;2023-07-20T01:38:24;17.80;99.90
5226;DHT22;2632;51.666;7.146;2023-07-20T01:40:51;17.80;99.90
5226;DHT22;2632;51.666;7.146;2023-07-20T01:43:18;17.70;99.90
5226;DHT22;2632;51.666;7.146;2023-07-20T01:45:45;17.80;99.90
5226;DHT22;2632;51.666;7.146;2023-07-20T01:48:11;17.80;99.90
5226;DHT22;2632;51.666;7.146;2023-07-20T01:50:38;17.70;99.90
5226;DHT22;2632;51.666;7.146;2023-07-20T01:53:05;17.70;99.90
5226;DHT22;2632;51.666;7.146;2023-07-20T01:55:32;17.70;99.90
5226;DHT22;2632;51.666;7.146;2023-07-20T01:57:58;17.80;99.90
5226;DHT22;2632;51.666;7.146;2023-07-20T02:00:27;17.50;99.90
5226;DHT22;2632;51.666;7.146;2023-07-20T02:02:54;17.30;99.90
5226;DHT22;2632;51.666;7.146;2023-07-20T02:05:20;17.30;99.90
5226;DHT22;2632;51.666;7.146;2023-07-20T02:07:47;17.30;99.90
5226;DHT22;2632;51.666;7.146;2023-07-20T02:10:14;17.40;99.90
5226;DHT22;2632;51.666;7.146;2023-07-20T02:12:40;17.30;99.90
5226;DHT22;2632;51.666;7.146;2023-07-20T02:15:08;17.20;99.90
5226;DHT22;2632;51.666;7.146;2023-07-20T02:17:34;17.20;99.90
5226;DHT22;2632;51.666;7.146;2023-07-20T02:20:01;17.30;99.90
5226;DHT22;2632;51.666;7.146;2023-07-20T02:22:28;17.30;99.90
5226;DHT22;2632;51.666;7.146;2023-07-20T02:24:55;17.30;99.90
5226;DHT22;2632;51.666;7.146;2023-07-20T02:27:21;17.30;99.90
5226;DHT22;2632;51.666;7.146;2023-07-20T02:29:48;17.30;99.90
5226;DHT22;2632;51.666;7.146;2023-07-20T02:32:16;17.20;99.90
5226;DHT22;2632;51.666;7.146;2023-07-20T02:34:43;17.10;99.90
5226;DHT22;2632;51.666;7.146;2023-07-20T02:37:10;17.20;99.90
5226;DHT22;2632;51.666;7.146;2023-07-20T02:39:39;17.20;99.90
5226;DHT22;2632;51.666;7.146;2023-07-20T02:42:06;17.20;99.90
5226;DHT22;2632;51.666;7.146;2023-07-20T02:44:33;17.30;99.90
5226;DHT22;2632;51.666;7.146;2023-07-20T02:46:59;17.20;99.90
5226;DHT22;2632;51.666;7.146;2023-07-20T02:49:26;17.20;99.90
5226;DHT22;2632;51.666;7.146;2023-07-20T02:51:53;17.10;99.90
5226;DHT22;2632;51.666;7.146;2023-07-20T02:54:20;17.10;99.90
5226;DHT22;2632;51.666;7.146;2023-07-20T02:56:47;17.10;99.90
5226;DHT22;2632;51.666;7.146;2023-07-20T02:59:14;17.10;99.90
5226;DHT22;2632;51.666;7.146;2023-07-20T03:01:40;17.10;99.90
5226;DHT22;2632;51.666;7.146;2023-07-20T03:04:08;17.00;99.90
5226;DHT22;2632;51.666;7.146;2023-07-20T03:06:38;16.90;99.90
5226;DHT22;2632;51.666;7.146;2023-07-20T03:09:05;17.00;99.90
5226;DHT22;2632;51.666;7.146;2023-07-20T03:11:33;17.10;99.90
5226;DHT22;2632;51.666;7.146;2023-07-20T03:14:00;17.00;99.90
5226;DHT22;2632;51.666;7.146;2023-07-20T03:16:27;17.00;99.90
5226;DHT22;2632;51.666;7.146;2023-07-20T03:18:54;16.90;99.90
5226;DHT22;2632;51.666;7.146;2023-07-20T03:21:20;17.00;99.90
5226;DHT22;2632;51.666;7.146;2023-07-20T03:23:47;17.00;99.90
5226;DHT22;2632;51.666;7.146;2023-07-20T03:26:14;16.90;99.90
5226;DHT22;2632;51.666;7.146;2023-07-20T03:28:40;16.90;99.90
5226;DHT22;2632;51.666;7.146;2023-07-20T03:31:07;16.80;99.90
5226;DHT22;2632;51.666;7.146;2023-07-20T03:33:34;16.80;99.90
5226;DHT22;2632;51.666;7.146;2023-07-20T03:36:01;16.80;99.90
5226;DHT22;2632;51.666;7.146;2023-07-20T03:38:28;16.90;99.90
5226;DHT22;2632;51.666;7.146;2023-07-20T03:41:00;16.90;99.90
5226;DHT22;2632;51.666;7.146;2023-07-20T03:43:27;16.90;99.90
5226;DHT22;2632;51.666;7.146;2023-07-20T03:45:54;16.80;99.90
5226;DHT22;2632;51.666;7.146;2023-07-20T03:48:23;16.80;99.90
5226;DHT22;2632;51.666;7.146;2023-07-20T03:50:52;16.90;99.90
5226;DHT22;2632;51.666;7.146;2023-07-20T03:53:19;16.90;99.90
5226;DHT22;2632;51.666;7.146;2023-07-20T03:55:47;16.90;99.90
5226;DHT22;2632;51.666;7.146;2023-07-20T03:58:15;16.90;99.90
5226;DHT22;2632;51.666;7.146;2023-07-20T04:00:49;16.80;99.90
5226;DHT22;2632;51.666;7.146;2023-07-20T04:03:19;16.80;99.90
5226;DHT22;2632;51.666;7.146;2023-07-20T04:05:47;16.80;99.90
5226;DHT22;2632;51.666;7.146;2023-07-20T04:08:13;16.70;99.90
5226;DHT22;2632;51.666;7.146;2023-07-20T04:10:43;16.60;99.90
5226;DHT22;2632;51.666;7.146;2023-07-20T04:13:11;16.60;99.90
5226;DHT22;2632;51.666;7.146;2023-07-20T04:15:38;16.50;99.90
5226;DHT22;2632;51.666;7.146;2023-07-20T04:18:05;16.50;99.90
5226;DHT22;2632;51.666;7.146;2023-07-20T04:20:31;16.60;99.90
5226;DHT22;2632;51.666;7.146;2023-07-20T04:22:58;16.60;99.90
5226;DHT22;2632;51.666;7.146;2023-07-20T04:25:25;16.60;99.90
5226;DHT22;2632;51.666;7.146;2023-07-20T04:27:52;16.60;99.90
5226;DHT22;2632;51.666;7.146;2023-07-20T04:30:19;16.60;99.90
5226;DHT22;2632;51.666;7.146;2023-07-20T04:32:48;16.60;99.90
5226;DHT22;2632;51.666;7.146;2023-07-20T04:35:48;16.70;99.90
5226;DHT22;2632;51.666;7.146;2023-07-20T04:38:15;16.70;99.90
5226;DHT22;2632;51.666;7.146;2023-07-20T04:40:45;16.50;99.90
5226;DHT22;2632;51.666;7.146;2023-07-20T04:43:13;16.50;99.90
5226;DHT22;2632;51.666;7.146;2023-07-20T04:45:39;16.50;99.90
5226;DHT22;2632;51.666;7.146;2023-07-20T04:48:09;16.50;99.90
5226;DHT22;2632;51.666;7.146;2023-07-20T04:50:38;16.40;99.90
5226;DHT22;2632;51.666;7.146;2023-07-20T04:53:06;16.40;99.90
5226;DHT22;2632;51.666;7.146;2023-07-20T04:55:33;16.50;99.90
5226;DHT22;2632;51.666;7.146;2023-07-20T04:58:01;16.50;99.90
5226;DHT22;2632;51.666;7.146;2023-07-20T05:00:27;16.60;99.90
5226;DHT22;2632;51.666;7.146;2023-07-20T05:02:54;16.60;99.90
5226;DHT22;2632;51.666;7.146;2023-07-20T05:05:21;16.60;99.90
5226;DHT22;2632;51.666;7.146;2023-07-20T05:07:48;16.60;99.90
5226;DHT22;2632;51.666;7.146;2023-07-20T05:10:14;16.60;99.90
5226;DHT22;2632;51.666;7.146;2023-07-20T05:12:41;16.60;99.90
5226;DHT22;2632;51.666;7.146;2023-07-20T05:15:08;16.60;99.90
5226;DHT22;2632;51.666;7.146;2023-07-20T05:17:35;16.60;99.90
5226;DHT22;2632;51.666;7.146;2023-07-20T05:20:02;16.70;99.90
5226;DHT22;2632;51.666;7.146;2023-07-20T05:22:31;16.80;99.90
5226;DHT22;2632;51.666;7.146;2023-07-20T05:24:57;16.90;99.90
5226;DHT22;2632;51.666;7.146;2023-07-20T05:27:24;16.80;99.90
5226;DHT22;2632;51.666;7.146;2023-07-20T05:29:51;16.70;99.90
5226;DHT22;2632;51.666;7.146;2023-07-20T05:32:18;16.60;99.90
5226;DHT22;2632;51.666;7.146;2023-07-20T05:34:44;16.70;99.90
5226;DHT22;2632;51.666;7.146;2023-07-20T05:37:11;16.70;99.90
5226;DHT22;2632;51.666;7.146;2023-07-20T05:39:40;16.70;99.90
5226;DHT22;2632;51.666;7.146;2023-07-20T05:42:07;17.40;99.90
5226;DHT22;2632;51.666;7.146;2023-07-20T05:44:34;16.80;99.90
5226;DHT22;2632;51.666;7.146;2023-07-20T05:47:01;16.70;99.90
5226;DHT22;2632;51.666;7.146;2023-07-20T05:49:29;16.70;99.90
5226;DHT22;2632;51.666;7.146;2023-07-20T05:51:56;16.80;99.90
5226;DHT22;2632;51.666;7.146;2023-07-20T05:54:26;16.90;99.90
5226;DHT22;2632;51.666;7.146;2023-07-20T05:56:53;17.00;99.90
5226;DHT22;2632;51.666;7.146;2023-07-20T05:59:20;17.00;99.90
5226;DHT22;2632;51.666;7.146;2023-07-20T08:08:56;19.60;99.90
5226;DHT22;2632;51.666;7.146;2023-07-20T08:11:23;19.40;99.90
5226;DHT22;2632;51.666;7.146;2023-07-20T08:13:50;18.70;99.90
5226;DHT22;2632;51.666;7.146;2023-07-20T08:16:17;18.50;99.90
5226;DHT22;2632;51.666;7.146;2023-07-20T08:18:44;16.90;99.90
5226;DHT22;2632;51.666;7.146;2023-07-20T08:21:12;18.90;99.90
5226;DHT22;2632;51.666;7.146;2023-07-20T08:23:39;19.40;99.90
5226;DHT22;2632;51.666;7.146;2023-07-20T08:26:05;20.70;99.90
5226;DHT22;2632;51.666;7.146;2023-07-20T08:28:32;21.50;96.90
5226;DHT22;2632;51.666;7.146;2023-07-20T08:30:59;21.90;96.60
5226;DHT22;2632;51.666;7.146;2023-07-20T08:33:26;22.30;93.60
5226;DHT22;2632;51.666;7.146;2023-07-20T08:35:55;23.20;92.40
5226;DHT22;2632;51.666;7.146;2023-07-20T08:38:24;22.10;93.20
5226;DHT22;2632;51.666;7.146;2023-07-20T08:40:51;21.60;95.50
5226;DHT22;2632;51.666;7.146;2023-07-20T08:43:20;21.30;94.00
5226;DHT22;2632;51.666;7.146;2023-07-20T08:45:52;20.60;95.80
5226;DHT22;2632;51.666;7.146;2023-07-20T08:48:21;20.40;97.50
5226;DHT22;2632;51.666;7.146;2023-07-20T08:50:51;20.40;96.30
5226;DHT22;2632;51.666;7.146;2023-07-20T08:53:20;20.20;96.20
5226;DHT22;2632;51.666;7.146;2023-07-20T08:55:50;19.70;97.40
5226;DHT22;2632;51.666;7.146;2023-07-20T08:58:17;19.70;97.10
5226;DHT22;2632;51.666;7.146;2023-07-20T09:00:44;20.40;97.50
5226;DHT22;2632;51.666;7.146;2023-07-20T09:03:14;20.80;94.40
5226;DHT22;2632;51.666;7.146;2023-07-20T09:05:41;20.80;95.00
5226;DHT22;2632;51.666;7.146;2023-07-20T09:08:08;21.00;93.70
5226;DHT22;2632;51.666;7.146;2023-07-20T09:10:34;21.10;93.70
5226;DHT22;2632;51.666;7.146;2023-07-20T09:13:01;21.50;93.30
5226;DHT22;2632;51.666;7.146;2023-07-20T09:15:30;21.80;92.40
5226;DHT22;2632;51.666;7.146;2023-07-20T09:18:01;21.60;92.60
5226;DHT22;2632;51.666;7.146;2023-07-20T09:20:32;21.90;93.90
5226;DHT22;2632;51.666;7.146;2023-07-20T09:22:59;22.10;92.10
5226;DHT22;2632;51.666;7.146;2023-07-20T09:25:27;21.70;91.40
5226;DHT22;2632;51.666;7.146;2023-07-20T09:27:57;21.90;92.60
5226;DHT22;2632;51.666;7.146;2023-07-20T09:30:25;22.00;91.80
5226;DHT22;2632;51.666;7.146;2023-07-20T09:32:58;22.30;90.40
5226;DHT22;2632;51.666;7.146;2023-07-20T09:35:25;22.20;86.50
5226;DHT22;2632;51.666;7.146;2023-07-20T09:38:00;22.10;90.50
5226;DHT22;2632;51.666;7.146;2023-07-20T09:40:30;22.40;88.20
5226;DHT22;2632;51.666;7.146;2023-07-20T09:43:10;22.10;83.70
5226;DHT22;2632;51.666;7.146;2023-07-20T09:45:42;22.20;89.20
5226;DHT22;2632;51.666;7.146;2023-07-20T09:48:12;22.30;90.80
5226;DHT22;2632;51.666;7.146;2023-07-20T09:50:49;21.70;86.90
5226;DHT22;2632;51.666;7.146;2023-07-20T09:53:18;21.80;90.20
5226;DHT22;2632;51.666;7.146;2023-07-20T09:55:45;22.20;87.40
5226;DHT22;2632;51.666;7.146;2023-07-20T09:58:14;22.80;84.50
5226;DHT22;2632;51.666;7.146;2023-07-20T10:00:42;23.10;81.80
5226;DHT22;2632;51.666;7.146;2023-07-20T10:03:22;23.20;79.30
5226;DHT22;2632;51.666;7.146;2023-07-20T10:05:58;23.30;80.70
5226;DHT22;2632;51.666;7.146;2023-07-20T10:08:29;23.60;79.70
5226;DHT22;2632;51.666;7.146;2023-07-20T10:11:00;23.70;82.60
5226;DHT22;2632;51.666;7.146;2023-07-20T10:13:29;24.10;74.00
5226;DHT22;2632;51.666;7.146;2023-07-20T10:16:05;23.80;77.50
5226;DHT22;2632;51.666;7.146;2023-07-20T10:21:19;23.70;76.80
5226;DHT22;2632;51.666;7.146;2023-07-20T10:23:49;24.00;77.90
5226;DHT22;2632;51.666;7.146;2023-07-20T10:26:16;24.40;71.90
5226;DHT22;2632;51.666;7.146;2023-07-20T10:28:43;24.20;72.70
5226;DHT22;2632;51.666;7.146;2023-07-20T10:31:11;23.80;73.60
5226;DHT22;2632;51.666;7.146;2023-07-20T10:33:39;24.20;73.30
5226;DHT22;2632;51.666;7.146;2023-07-20T10:36:06;24.60;69.00
5226;DHT22;2632;51.666;7.146;2023-07-20T10:38:40;24.50;63.40
5226;DHT22;2632;51.666;7.146;2023-07-20T10:41:28;24.30;69.30
5226;DHT22;2632;51.666;7.146;2023-07-20T10:44:09;24.30;70.40
5226;DHT22;2632;51.666;7.146;2023-07-20T10:49:08;24.60;66.60
5226;DHT22;2632;51.666;7.146;2023-07-20T10:51:46;24.50;66.00
5226;DHT22;2632;51.666;7.146;2023-07-20T10:56:46;24.50;67.00
5226;DHT22;2632;51.666;7.146;2023-07-20T10:59:19;24.90;66.30
5226;DHT22;2632;51.666;7.146;2023-07-20T11:01:47;24.70;66.40
5226;DHT22;2632;51.666;7.146;2023-07-20T11:04:16;25.00;66.60
5226;DHT22;2632;51.666;7.146;2023-07-20T11:06:46;25.30;69.50
5226;DHT22;2632;51.666;7.146;2023-07-20T11:09:22;25.10;68.10
5226;DHT22;2632;51.666;7.146;2023-07-20T11:12:17;24.50;68.60
5226;DHT22;2632;51.666;7.146;2023-07-20T11:14:55;24.70;69.40
5226;DHT22;2632;51.666;7.146;2023-07-20T11:17:32;24.80;67.70
5226;DHT22;2632;51.666;7.146;2023-07-20T11:20:00;24.90;65.40
5226;DHT22;2632;51.666;7.146;2023-07-20T11:22:33;25.40;65.80
5226;DHT22;2632;51.666;7.146;2023-07-20T11:25:00;25.20;62.50
5226;DHT22;2632;51.666;7.146;2023-07-20T11:27:27;25.40;65.30
5226;DHT22;2632;51.666;7.146;2023-07-20T11:29:54;25.40;66.30
5226;DHT22;2632;51.666;7.146;2023-07-20T11:32:22;25.60;65.90
5226;DHT22;2632;51.666;7.146;2023-07-20T11:34:49;25.70;65.20
5226;DHT22;2632;51.666;7.146;2023-07-20T11:37:16;26.00;60.00
5226;DHT22;2632;51.666;7.146;2023-07-20T11:39:43;25.80;60.00
5226;DHT22;2632;51.666;7.146;2023-07-20T11:42:11;25.70;61.70
5226;DHT22;2632;51.666;7.146;2023-07-20T11:44:38;25.80;65.10
5226;DHT22;2632;51.666;7.146;2023-07-20T11:47:09;26.00;62.60
5226;DHT22;2632;51.666;7.146;2023-07-20T11:49:37;25.60;61.50
5226;DHT22;2632;51.666;7.146;2023-07-20T11:52:13;24.70;61.30
5226;DHT22;2632;51.666;7.146;2023-07-20T11:54:42;24.60;62.90
5226;DHT22;2632;51.666;7.146;2023-07-20T11:57:18;25.30;64.80
5226;DHT22;2632;51.666;7.146;2023-07-20T12:00:00;25.40;57.30
5226;DHT22;2632;51.666;7.146;2023-07-20T12:02:28;25.40;63.30
5226;DHT22;2632;51.666;7.146;2023-07-20T12:04:55;25.50;59.00
5226;DHT22;2632;51.666;7.146;2023-07-20T12:07:22;25.70;58.80
5226;DHT22;2632;51.666;7.146;2023-07-20T12:10:12;26.00;58.00
5226;DHT22;2632;51.666;7.146;2023-07-20T12:12:40;26.20;59.00
5226;DHT22;2632;51.666;7.146;2023-07-20T12:17:50;25.80;56.70
5226;DHT22;2632;51.666;7.146;2023-07-20T12:22:58;26.20;58.70
5226;DHT22;2632;51.666;7.146;2023-07-20T12:28:16;25.70;60.20
5226;DHT22;2632;51.666;7.146;2023-07-20T12:30:44;25.50;60.10
5226;DHT22;2632;51.666;7.146;2023-07-20T12:33:12;24.60;59.50
5226;DHT22;2632;51.666;7.146;2023-07-20T12:35:42;24.30;62.00
5226;DHT22;2632;51.666;7.146;2023-07-20T12:38:09;24.20;59.70
5226;DHT22;2632;51.666;7.146;2023-07-20T12:40:36;24.80;61.00
5226;DHT22;2632;51.666;7.146;2023-07-20T12:43:03;25.70;59.80
5226;DHT22;2632;51.666;7.146;2023-07-20T12:45:31;26.30;56.00
5226;DHT22;2632;51.666;7.146;2023-07-20T12:47:58;26.50;57.30
5226;DHT22;2632;51.666;7.146;2023-07-20T12:50:24;26.30;58.50
5226;DHT22;2632;51.666;7.146;2023-07-20T12:52:51;26.40;57.60
5226;DHT22;2632;51.666;7.146;2023-07-20T12:55:18;26.20;54.50
5226;DHT22;2632;51.666;7.146;2023-07-20T12:57:46;25.50;55.30
5226;DHT22;2632;51.666;7.146;2023-07-20T13:00:14;25.60;57.30
5226;DHT22;2632;51.666;7.146;2023-07-20T13:02:41;25.50;57.90
5226;DHT22;2632;51.666;7.146;2023-07-20T13:05:08;24.90;57.20
5226;DHT22;2632;51.666;7.146;2023-07-20T13:07:37;25.10;60.10
5226;DHT22;2632;51.666;7.146;2023-07-20T13:10:09;25.80;58.80
5226;DHT22;2632;51.666;7.146;2023-07-20T13:12:37;26.40;54.10
5226;DHT22;2632;51.666;7.146;2023-07-20T13:15:06;26.60;51.70
5226;DHT22;2632;51.666;7.146;2023-07-20T13:17:38;26.60;51.30
5226;DHT22;2632;51.666;7.146;2023-07-20T13:20:09;26.70;54.50
5226;DHT22;2632;51.666;7.146;2023-07-20T13:22:38;26.90;52.00
5226;DHT22;2632;51.666;7.146;2023-07-20T13:25:05;25.80;50.90
5226;DHT22;2632;51.666;7.146;2023-07-20T13:27:33;25.40;52.90
5226;DHT22;2632;51.666;7.146;2023-07-20T13:30:00;25.20;55.00
5226;DHT22;2632;51.666;7.146;2023-07-20T13:32:29;25.70;54.00
5226;DHT22;2632;51.666;7.146;2023-07-20T13:35:00;26.40;56.10
5226;DHT22;2632;51.666;7.146;2023-07-20T13:37:27;26.80;54.20
5226;DHT22;2632;51.666;7.146;2023-07-20T13:39:57;26.90;54.00
5226;DHT22;2632;51.666;7.146;2023-07-20T13:42:23;26.60;53.20
5226;DHT22;2632;51.666;7.146;2023-07-20T13:44:50;26.00;57.00
5226;DHT22;2632;51.666;7.146;2023-07-20T13:47:17;25.60;59.70
5226;DHT22;2632;51.666;7.146;2023-07-20T13:49:47;25.10;58.10
5226;DHT22;2632;51.666;7.146;2023-07-20T13:52:14;24.70;57.90
5226;DHT22;2632;51.666;7.146;2023-07-20T13:54:44;24.40;60.10
5226;DHT22;2632;51.666;7.146;2023-07-20T13:57:16;25.10;59.40
5226;DHT22;2632;51.666;7.146;2023-07-20T13:59:43;25.30;58.30
5226;DHT22;2632;51.666;7.146;2023-07-20T14:02:10;25.30;58.00
5226;DHT22;2632;51.666;7.146;2023-07-20T14:04:40;24.90;58.10
5226;DHT22;2632;51.666;7.146;2023-07-20T14:07:08;24.40;57.70
5226;DHT22;2632;51.666;7.146;2023-07-20T14:09:37;24.50;59.60
5226;DHT22;2632;51.666;7.146;2023-07-20T14:12:24;24.30;59.70
5226;DHT22;2632;51.666;7.146;2023-07-20T14:14:50;24.10;60.50
5226;DHT22;2632;51.666;7.146;2023-07-20T14:17:17;24.10;59.10
5226;DHT22;2632;51.666;7.146;2023-07-20T14:19:44;24.60;59.00
5226;DHT22;2632;51.666;7.146;2023-07-20T14:22:10;25.00;59.90
5226;DHT22;2632;51.666;7.146;2023-07-20T14:24:38;25.50;57.20
5226;DHT22;2632;51.666;7.146;2023-07-20T14:27:05;26.10;57.00
5226;DHT22;2632;51.666;7.146;2023-07-20T14:29:31;26.40;55.80
5226;DHT22;2632;51.666;7.146;2023-07-20T14:31:59;26.70;57.30
5226;DHT22;2632;51.666;7.146;2023-07-20T14:34:26;26.10;54.20
5226;DHT22;2632;51.666;7.146;2023-07-20T14:36:52;25.80;54.10
5226;DHT22;2632;51.666;7.146;2023-07-20T14:39:20;25.30;56.10
5226;DHT22;2632;51.666;7.146;2023-07-20T14:41:47;24.80;58.80
5226;DHT22;2632;51.666;7.146;2023-07-20T14:44:14;25.40;57.50
5226;DHT22;2632;51.666;7.146;2023-07-20T14:46:41;25.40;56.60
5226;DHT22;2632;51.666;7.146;2023-07-20T14:49:07;24.90;58.60
5226;DHT22;2632;51.666;7.146;2023-07-20T14:51:34;24.70;57.30
5226;DHT22;2632;51.666;7.146;2023-07-20T14:54:03;24.40;57.70
5226;DHT22;2632;51.666;7.146;2023-07-20T14:56:30;24.20;58.30
5226;DHT22;2632;51.666;7.146;2023-07-20T14:58:57;24.20;61.70
5226;DHT22;2632;51.666;7.146;2023-07-20T15:01:24;24.30;60.30
5226;DHT22;2632;51.666;7.146;2023-07-20T15:03:51;24.20;57.70
5226;DHT22;2632;51.666;7.146;2023-07-20T15:06:23;24.10;62.20
5226;DHT22;2632;51.666;7.146;2023-07-20T15:08:51;24.10;60.60
5226;DHT22;2632;51.666;7.146;2023-07-20T15:11:17;24.30;61.50
5226;DHT22;2632;51.666;7.146;2023-07-20T15:13:44;24.80;63.70
5226;DHT22;2632;51.666;7.146;2023-07-20T15:16:11;24.80;60.40
5226;DHT22;2632;51.666;7.146;2023-07-20T15:18:38;24.70;60.00
5226;DHT22;2632;51.666;7.146;2023-07-20T15:21:14;24.90;60.00
5226;DHT22;2632;51.666;7.146;2023-07-20T15:23:44;24.80;58.00
5226;DHT22;2632;51.666;7.146;2023-07-20T15:26:11;24.60;57.40
5226;DHT22;2632;51.666;7.146;2023-07-20T15:28:39;24.20;60.70
5226;DHT22;2632;51.666;7.146;2023-07-20T15:31:07;24.00;61.10
5226;DHT22;2632;51.666;7.146;2023-07-20T15:33:34;23.90;60.90
5226;DHT22;2632;51.666;7.146;2023-07-20T15:36:01;23.90;59.60
5226;DHT22;2632;51.666;7.146;2023-07-20T15:38:27;23.90;60.90
5226;DHT22;2632;51.666;7.146;2023-07-20T15:40:54;23.70;63.40
5226;DHT22;2632;51.666;7.146;2023-07-20T15:43:23;23.70;62.20
5226;DHT22;2632;51.666;7.146;2023-07-20T15:45:50;23.60;60.60
5226;DHT22;2632;51.666;7.146;2023-07-20T15:48:18;23.50;62.30
5226;DHT22;2632;51.666;7.146;2023-07-20T15:50:46;23.50;62.80
5226;DHT22;2632;51.666;7.146;2023-07-20T15:53:13;23.40;63.10
5226;DHT22;2632;51.666;7.146;2023-07-20T15:55:39;23.20;63.00
5226;DHT22;2632;51.666;7.146;2023-07-20T15:58:07;23.10;64.40
5226;DHT22;2632;51.666;7.146;2023-07-20T16:00:34;22.90;63.90
5226;DHT22;2632;51.666;7.146;2023-07-20T16:03:00;23.10;65.00
5226;DHT22;2632;51.666;7.146;2023-07-20T16:05:27;23.20;65.50
5226;DHT22;2632;51.666;7.146;2023-07-20T16:08:22;23.40;62.80
5226;DHT22;2632;51.666;7.146;2023-07-20T16:10:49;23.40;64.30
5226;DHT22;2632;51.666;7.146;2023-07-20T16:13:17;23.60;61.40
5226;DHT22;2632;51.666;7.146;2023-07-20T16:15:46;23.70;61.70
5226;DHT22;2632;51.666;7.146;2023-07-20T16:18:15;24.10;62.50
5226;DHT22;2632;51.666;7.146;2023-07-20T16:20:42;24.10;62.30
5226;DHT22;2632;51.666;7.146;2023-07-20T16:23:09;24.00;60.80
5226;DHT22;2632;51.666;7.146;2023-07-20T16:25:35;24.10;61.20
5226;DHT22;2632;51.666;7.146;2023-07-20T16:28:02;24.10;61.70
5226;DHT22;2632;51.666;7.146;2023-07-20T16:30:30;24.00;61.70
5226;DHT22;2632;51.666;7.146;2023-07-20T16:32:57;23.90;62.00
5226;DHT22;2632;51.666;7.146;2023-07-20T16:35:28;24.00;60.60
5226;DHT22;2632;51.666;7.146;2023-07-20T16:38:14;24.10;61.30
5226;DHT22;2632;51.666;7.146;2023-07-20T16:40:41;24.00;61.00
5226;DHT22;2632;51.666;7.146;2023-07-20T16:43:11;24.00;61.50
5226;DHT22;2632;51.666;7.146;2023-07-20T16:45:37;24.00;61.50
5226;DHT22;2632;51.666;7.146;2023-07-20T16:48:04;24.10;61.60
5226;DHT22;2632;51.666;7.146;2023-07-20T16:50:32;24.10;61.90
5226;DHT22;2632;51.666;7.146;2023-07-20T16:52:58;24.00;62.50
5226;DHT22;2632;51.666;7.146;2023-07-20T16:55:27;23.80;60.50
5226;DHT22;2632;51.666;7.146;2023-07-20T16:57:53;23.60;60.20
5226;DHT22;2632;51.666;7.146;2023-07-20T17:00:20;23.50;61.60
5226;DHT22;2632;51.666;7.146;2023-07-20T17:02:48;23.40;63.80
5226;DHT22;2632;51.666;7.146;2023-07-20T17:05:15;23.40;62.80
5226;DHT22;2632;51.666;7.146;2023-07-20T17:07:41;23.20;63.00
5226;DHT22;2632;51.666;7.146;2023-07-20T17:10:09;23.30;62.90
5226;DHT22;2632;51.666;7.146;2023-07-20T17:12:37;23.40;62.80
5226;DHT22;2632;51.666;7.146;2023-07-20T17:15:05;23.20;63.10
5226;DHT22;2632;51.666;7.146;2023-07-20T17:17:32;23.10;64.20
5226;DHT22;2632;51.666;7.146;2023-07-20T17:19:59;23.30;63.40
5226;DHT22;2632;51.666;7.146;2023-07-20T17:22:29;23.30;65.60
5226;DHT22;2632;51.666;7.146;2023-07-20T17:24:57;23.20;65.60
5226;DHT22;2632;51.666;7.146;2023-07-20T17:27:27;23.10;63.30
5226;DHT22;2632;51.666;7.146;2023-07-20T17:29:54;23.20;66.30
5226;DHT22;2632;51.666;7.146;2023-07-20T17:32:21;23.30;65.50
5226;DHT22;2632;51.666;7.146;2023-07-20T17:34:48;23.30;64.10
5226;DHT22;2632;51.666;7.146;2023-07-20T17:37:15;23.20;63.40
5226;DHT22;2632;51.666;7.146;2023-07-20T17:39:43;23.00;63.90
5226;DHT22;2632;51.666;7.146;2023-07-20T17:42:13;22.90;65.10
5226;DHT22;2632;51.666;7.146;2023-07-20T17:44:42;22.90;65.70
5226;DHT22;2632;51.666;7.146;2023-07-20T17:47:09;22.90;63.70
5226;DHT22;2632;51.666;7.146;2023-07-20T17:49:39;22.90;67.10
5226;DHT22;2632;51.666;7.146;2023-07-20T17:52:06;23.10;65.10
5226;DHT22;2632;51.666;7.146;2023-07-20T17:54:32;23.00;64.00
5226;DHT22;2632;51.666;7.146;2023-07-20T17:56:59;23.00;63.90
5226;DHT22;2632;51.666;7.146;2023-07-20T17:59:26;22.80;63.00
5226;DHT22;2632;51.666;7.146;2023-07-20T18:01:53;22.70;64.90
5226;DHT22;2632;51.666;7.146;2023-07-20T18:04:19;22.60;66.40
5226;DHT22;2632;51.666;7.146;2023-07-20T18:06:46;22.60;66.20
5226;DHT22;2632;51.666;7.146;2023-07-20T18:09:13;22.40;70.10
5226;DHT22;2632;51.666;7.146;2023-07-20T18:11:39;22.40;69.70
5226;DHT22;2632;51.666;7.146;2023-07-20T18:14:06;22.30;70.90
5226;DHT22;2632;51.666;7.146;2023-07-20T18:16:33;22.20;70.40
5226;DHT22;2632;51.666;7.146;2023-07-20T18:18:59;22.10;71.90
5226;DHT22;2632;51.666;7.146;2023-07-20T18:21:27;22.10;71.50
5226;DHT22;2632;51.666;7.146;2023-07-20T18:23:54;21.90;72.20
5226;DHT22;2632;51.666;7.146;2023-07-20T18:26:20;21.80;76.00
5226;DHT22;2632;51.666;7.146;2023-07-20T18:28:47;21.70;76.20
5226;DHT22;2632;51.666;7.146;2023-07-20T18:31:14;21.70;75.90
5226;DHT22;2632;51.666;7.146;2023-07-20T18:33:40;21.60;79.80
5226;DHT22;2632;51.666;7.146;2023-07-20T18:36:08;21.40;78.00
5226;DHT22;2632;51.666;7.146;2023-07-20T18:38:35;21.30;77.90
5226;DHT22;2632;51.666;7.146;2023-07-20T18:41:01;21.20;77.20
5226;DHT22;2632;51.666;7.146;2023-07-20T18:43:28;21.30;77.80